createdAt,value
2022-10-04T00:01:24.771Z,4.37
2022-10-04T00:04:04.543Z,5.57
2022-10-04T00:06:31.074Z,2.90
2022-10-04T00:09:05.141Z,5.43
2022-10-04T00:11:34.193Z,4.18
2022-10-04T00:14:05.687Z,3.72
2022-10-04T00:16:34.656Z,4.47
2022-10-04T00:19:23.132Z,3.92
2022-10-04T00:21:56.226Z,4.85
2022-10-04T00:24:29.560Z,4.35
2022-10-04T00:27:18.935Z,4.53
2022-10-04T00:30:04.243Z,5.75
2022-10-04T00:32:40.483Z,6.22
2022-10-04T00:35:25.360Z,6.30
2022-10-04T00:38:06.842Z,3.12
2022-10-04T00:40:39.979Z,3.30
2022-10-04T00:43:27.609Z,3.87
2022-10-04T00:46:06.081Z,5.05
2022-10-04T00:51:31.086Z,4.65
2022-10-04T00:53:59.325Z,5.57
2022-10-04T00:56:30.719Z,3.08
2022-10-04T00:59:00.032Z,4.93
2022-10-04T01:01:27.811Z,5.15
2022-10-04T01:06:20.812Z,5.97
2022-10-04T01:08:47.205Z,7.47
2022-10-04T01:11:26.915Z,3.62
2022-10-04T01:13:59.144Z,7.22
2022-10-04T01:16:27.230Z,6.70
2022-10-04T01:18:53.830Z,6.22
2022-10-04T01:21:20.386Z,7.00
2022-10-04T01:23:50.387Z,3.67
2022-10-04T01:26:35.202Z,5.87
2022-10-04T01:29:40.295Z,5.70
2022-10-04T01:32:06.819Z,6.40
2022-10-04T01:34:33.334Z,5.10
2022-10-04T01:37:00.181Z,8.95
2022-10-04T01:39:27.735Z,5.70
2022-10-04T01:42:01.023Z,6.43
2022-10-04T01:44:37.079Z,4.28
2022-10-04T01:47:06.195Z,7.07
2022-10-04T01:49:34.160Z,4.93
2022-10-04T01:52:05.568Z,4.72
2022-10-04T01:54:37.008Z,3.58
2022-10-04T01:57:07.559Z,3.97
2022-10-04T01:59:39.923Z,8.35
2022-10-04T02:02:09.519Z,6.25
2022-10-04T02:04:38.687Z,4.15
2022-10-04T02:07:13.884Z,4.28
2022-10-04T02:09:43.706Z,7.60
2022-10-04T02:12:15.249Z,5.25
2022-10-04T02:14:44.289Z,4.15
2022-10-04T02:17:11.461Z,5.37
2022-10-04T02:19:42.321Z,3.15
2022-10-04T02:22:09.903Z,4.05
2022-10-04T02:24:41.412Z,6.68
2022-10-04T02:27:07.937Z,6.43
2022-10-04T02:29:34.489Z,5.20
2022-10-04T02:32:19.825Z,4.40
2022-10-04T02:34:46.753Z,5.32
2022-10-04T02:37:13.262Z,5.30
2022-10-04T02:39:44.009Z,7.47
2022-10-04T02:42:12.727Z,4.80
2022-10-04T02:44:44.655Z,4.37
2022-10-04T02:47:17.815Z,5.05
2022-10-04T02:49:54.481Z,6.85
2022-10-04T02:52:25.826Z,6.15
2022-10-04T02:54:55.890Z,5.15
2022-10-04T02:57:22.985Z,5.00
2022-10-04T02:59:49.877Z,3.75
2022-10-04T03:02:29.475Z,4.27
2022-10-04T03:05:00.299Z,6.25
2022-10-04T03:07:26.860Z,6.20
2022-10-04T03:09:53.488Z,7.18
2022-10-04T03:12:22.230Z,7.53
2022-10-04T03:14:48.780Z,5.05
2022-10-04T03:17:15.311Z,3.97
2022-10-04T03:19:41.837Z,4.25
2022-10-04T03:22:09.692Z,4.70
2022-10-04T03:27:07.521Z,4.72
2022-10-04T03:29:34.136Z,6.57
2022-10-04T03:32:01.877Z,6.43
2022-10-04T03:37:02.203Z,6.72
2022-10-04T03:39:29.257Z,4.68
2022-10-04T03:41:57.862Z,5.68
2022-10-04T03:44:24.479Z,6.00
2022-10-04T03:46:51.007Z,7.05
2022-10-04T03:49:21.631Z,5.07
2022-10-04T03:51:49.138Z,4.82
2022-10-04T03:54:18.096Z,7.87
2022-10-04T03:56:44.625Z,7.90
2022-10-04T03:59:11.153Z,2.80
2022-10-04T04:01:40.453Z,4.82
2022-10-04T04:04:18.199Z,6.07
2022-10-04T04:06:59.248Z,3.67
2022-10-04T04:09:47.031Z,5.93
2022-10-04T04:12:21.454Z,5.03
2022-10-04T04:14:50.447Z,4.70
2022-10-04T04:17:26.243Z,7.40
2022-10-04T04:20:02.353Z,5.93
2022-10-04T04:22:32.928Z,8.27
2022-10-04T04:25:04.794Z,4.87
2022-10-04T04:27:33.442Z,4.68
2022-10-04T04:30:00.003Z,7.45
2022-10-04T04:32:36.599Z,4.97
2022-10-04T04:35:07.114Z,5.68
2022-10-04T04:37:35.279Z,3.45
2022-10-04T04:40:18.691Z,3.95
2022-10-04T04:42:45.574Z,5.10
2022-10-04T04:45:21.029Z,4.57
2022-10-04T04:47:54.205Z,5.03
2022-10-04T04:50:25.427Z,3.90
2022-10-04T04:52:55.861Z,5.53
2022-10-04T04:55:24.371Z,5.35
2022-10-04T04:57:52.023Z,5.82
2022-10-04T05:00:20.154Z,5.97
2022-10-04T05:02:58.773Z,3.78
2022-10-04T05:05:35.644Z,4.30
2022-10-04T05:08:30.160Z,5.53
2022-10-04T05:11:01.566Z,4.55
2022-10-04T05:13:43.745Z,6.10
2022-10-04T05:16:23.674Z,5.65
2022-10-04T05:19:01.641Z,5.70
2022-10-04T05:21:29.827Z,6.95
2022-10-04T05:23:57.496Z,4.80
2022-10-04T05:26:27.835Z,2.92
2022-10-04T05:28:55.464Z,3.90
2022-10-04T05:31:34.028Z,4.55
2022-10-04T05:34:00.613Z,4.40
2022-10-04T05:36:39.164Z,6.45
2022-10-04T05:39:15.309Z,5.80
2022-10-04T05:42:07.832Z,3.65
2022-10-04T05:44:51.863Z,4.22
2022-10-04T05:47:23.915Z,8.65
2022-10-04T05:49:54.285Z,8.57
2022-10-04T05:52:34.569Z,5.53
2022-10-04T05:55:13.263Z,5.32
2022-10-04T05:58:19.147Z,6.20
2022-10-04T06:00:49.027Z,8.55
2022-10-04T06:03:34.849Z,6.05
2022-10-04T06:06:06.078Z,6.32
2022-10-04T06:09:10.342Z,5.47
2022-10-04T06:12:18.575Z,5.32
2022-10-04T06:15:16.069Z,5.68
2022-10-04T06:18:00.621Z,5.05
2022-10-04T06:20:50.819Z,6.12
2022-10-04T06:23:18.576Z,6.45
2022-10-04T06:25:51.332Z,6.65
2022-10-04T06:28:19.552Z,6.75
2022-10-04T06:31:29.499Z,8.18
2022-10-04T06:34:10.863Z,7.57
2022-10-04T06:36:59.507Z,8.65
2022-10-04T06:40:04.702Z,7.12
2022-10-04T06:42:55.616Z,6.35
2022-10-04T06:45:35.686Z,3.78
2022-10-04T06:48:24.849Z,4.53
2022-10-04T06:51:00.050Z,6.37
2022-10-04T06:53:30.614Z,3.58
2022-10-04T06:56:18.528Z,4.40
2022-10-04T06:59:00.690Z,5.28
2022-10-04T07:01:33.824Z,2.95
2022-10-04T07:04:14.252Z,4.43
2022-10-04T07:07:19.444Z,4.40
2022-10-04T07:09:46.029Z,5.82
2022-10-04T07:12:16.145Z,4.62
2022-10-04T07:14:50.314Z,5.90
2022-10-04T07:17:53.033Z,4.90
2022-10-04T07:20:23.176Z,3.80
2022-10-04T07:22:59.358Z,7.12
2022-10-04T07:25:30.749Z,3.97
2022-10-04T07:28:22.333Z,6.53
2022-10-04T07:30:53.951Z,5.60
2022-10-04T07:33:22.450Z,5.32
2022-10-04T07:35:51.997Z,3.65
2022-10-04T07:38:23.867Z,3.00
2022-10-04T07:41:03.718Z,4.40
2022-10-04T07:43:32.119Z,6.03
2022-10-04T07:46:19.686Z,3.55
2022-10-04T07:48:49.141Z,4.53
2022-10-04T07:51:34.890Z,5.07
2022-10-04T07:54:19.480Z,5.60
2022-10-04T07:57:11.060Z,6.05
2022-10-04T08:00:17.986Z,3.45
2022-10-04T08:03:12.688Z,6.53
2022-10-04T08:05:45.625Z,4.35
2022-10-04T08:08:34.084Z,3.70
2022-10-04T08:11:36.582Z,4.70
2022-10-04T08:14:40.327Z,5.30
2022-10-04T08:17:16.014Z,5.45
2022-10-04T08:19:50.388Z,4.78
2022-10-04T08:22:22.859Z,4.72
2022-10-04T08:25:15.232Z,5.30
2022-10-04T08:28:28.645Z,6.50
2022-10-04T08:31:09.264Z,4.25
2022-10-04T08:33:53.133Z,8.02
2022-10-04T08:36:44.765Z,4.20
2022-10-04T08:39:40.623Z,7.22
2022-10-04T08:42:26.482Z,3.03
2022-10-04T08:45:07.947Z,3.28
2022-10-04T08:48:28.864Z,5.47
2022-10-04T08:53:30.660Z,5.30
2022-10-04T08:56:10.819Z,3.03
2022-10-04T08:58:55.233Z,3.85
2022-10-04T09:01:39.241Z,3.15
2022-10-04T09:04:30.357Z,6.32
2022-10-04T09:07:27.434Z,2.60
2022-10-04T09:10:02.872Z,4.32
2022-10-04T09:12:34.733Z,7.40
2022-10-04T09:15:19.924Z,4.20
2022-10-04T09:18:03.372Z,4.95
2022-10-04T09:21:02.571Z,3.50
2022-10-04T09:23:32.093Z,3.17
2022-10-04T09:25:58.543Z,4.18
2022-10-04T09:28:55.897Z,8.10
2022-10-04T09:31:40.363Z,6.32
2022-10-04T09:34:37.451Z,3.83
2022-10-04T09:37:29.124Z,6.57
2022-10-04T09:40:04.225Z,5.22
2022-10-04T09:43:02.474Z,7.28
2022-10-04T09:45:31.512Z,5.70
2022-10-04T09:48:16.199Z,3.85
2022-10-04T09:51:08.315Z,5.03
2022-10-04T09:53:44.410Z,5.20
2022-10-04T09:56:20.171Z,5.10
2022-10-04T09:59:09.868Z,5.05
2022-10-04T10:02:00.929Z,8.73
2022-10-04T10:05:00.137Z,3.87
2022-10-04T10:08:05.604Z,6.90
2022-10-04T10:11:09.528Z,4.82
2022-10-04T10:14:00.574Z,4.12
2022-10-04T10:16:50.044Z,4.22
2022-10-04T10:19:44.375Z,9.38
2022-10-04T10:22:35.441Z,4.97
2022-10-04T10:25:22.842Z,6.87
2022-10-04T10:27:55.436Z,5.78
2022-10-04T10:30:31.171Z,5.90
2022-10-04T10:33:20.591Z,3.50
2022-10-04T10:36:28.907Z,3.80
2022-10-04T10:39:17.096Z,4.45
2022-10-04T10:42:07.843Z,3.65
2022-10-04T10:44:37.449Z,6.82
2022-10-04T10:47:15.491Z,6.05
2022-10-04T10:50:16.022Z,9.90
2022-10-04T10:53:24.203Z,3.58
2022-10-04T10:56:30.361Z,9.27
2022-10-04T10:59:05.633Z,4.62
2022-10-04T11:01:50.954Z,6.70
2022-10-04T11:04:55.923Z,3.47
2022-10-04T11:07:46.714Z,4.85
2022-10-04T11:10:33.665Z,5.20
2022-10-04T11:13:26.736Z,2.00
2022-10-04T11:16:26.727Z,3.50
2022-10-04T11:19:06.358Z,3.00
2022-10-04T11:22:06.870Z,2.67
2022-10-04T11:24:52.051Z,5.97
2022-10-04T11:27:33.173Z,3.67
2022-10-04T11:30:25.059Z,3.53
2022-10-04T11:32:54.462Z,3.67
2022-10-04T11:35:44.537Z,3.37
2022-10-04T11:38:23.178Z,2.72
2022-10-04T11:40:55.476Z,5.15
2022-10-04T11:43:46.614Z,2.92
2022-10-04T11:46:22.737Z,1.75
2022-10-04T11:49:21.702Z,3.42
2022-10-04T11:52:07.026Z,5.07
2022-10-04T11:55:06.601Z,4.72
2022-10-04T12:00:18.100Z,3.70
2022-10-04T12:02:50.558Z,4.05
2022-10-04T12:05:25.099Z,6.50
2022-10-04T12:07:51.519Z,4.97
2022-10-04T12:10:35.623Z,2.95
2022-10-04T12:13:05.098Z,3.87
2022-10-04T12:16:16.850Z,2.42
2022-10-04T12:19:17.871Z,4.82
2022-10-04T12:21:59.922Z,3.65
2022-10-04T12:24:41.651Z,4.30
2022-10-04T12:27:27.124Z,2.05
2022-10-04T12:30:15.128Z,3.50
2022-10-04T12:33:03.415Z,3.70
2022-10-04T12:36:17.170Z,3.42
2022-10-04T12:39:04.345Z,2.25
2022-10-04T12:41:45.926Z,2.53
2022-10-04T12:44:46.972Z,6.22
2022-10-04T12:47:32.803Z,5.10
2022-10-04T12:50:33.194Z,4.32
2022-10-04T12:53:14.422Z,4.80
2022-10-04T12:56:05.222Z,2.35
2022-10-04T12:58:50.425Z,2.90
2022-10-04T13:01:26.942Z,3.85
2022-10-04T13:04:08.195Z,3.60
2022-10-04T13:06:42.580Z,4.30
2022-10-04T13:09:20.580Z,4.18
2022-10-04T13:12:08.593Z,6.28
2022-10-04T13:15:14.197Z,5.37
2022-10-04T13:17:50.028Z,2.05
2022-10-04T13:20:29.187Z,1.87
2022-10-04T13:23:10.654Z,3.90
2022-10-04T13:26:03.841Z,4.62
2022-10-04T13:29:02.855Z,3.05
2022-10-04T13:31:34.925Z,1.70
2022-10-04T13:34:10.286Z,4.03
2022-10-04T13:37:05.782Z,3.25
2022-10-04T13:39:55.071Z,2.03
2022-10-04T13:42:36.744Z,2.47
2022-10-04T13:45:19.015Z,2.45
2022-10-04T13:47:54.588Z,1.70
2022-10-04T13:50:42.553Z,3.12
2022-10-04T13:54:03.719Z,1.95
2022-10-04T13:56:52.152Z,4.85
2022-10-04T13:59:18.725Z,3.90
2022-10-04T14:01:57.157Z,4.37
2022-10-04T14:05:01.094Z,2.95
2022-10-04T14:08:04.692Z,2.05
2022-10-04T14:10:37.500Z,3.85
2022-10-04T14:13:18.889Z,2.28
2022-10-04T14:15:57.316Z,3.05
2022-10-04T14:18:38.999Z,1.50
2022-10-04T14:21:24.247Z,3.33
2022-10-04T14:24:15.452Z,2.08
2022-10-04T14:27:20.472Z,1.83
2022-10-04T14:30:12.566Z,3.12
2022-10-04T14:33:03.413Z,5.00
2022-10-04T14:35:47.976Z,2.50
2022-10-04T14:38:38.324Z,2.53
2022-10-04T14:41:11.137Z,2.75
2022-10-04T14:44:15.026Z,4.12
2022-10-04T14:46:53.550Z,3.62
2022-10-04T14:52:20.766Z,3.83
2022-10-04T14:55:10.308Z,2.70
2022-10-04T14:57:51.188Z,2.95
2022-10-04T15:00:19.437Z,2.12
2022-10-04T15:03:05.544Z,1.55
2022-10-04T15:05:49.585Z,2.12
2022-10-04T15:08:22.282Z,2.62
2022-10-04T15:10:53.011Z,2.65
2022-10-04T15:13:30.998Z,3.03
2022-10-04T15:16:13.986Z,2.97
2022-10-04T15:18:57.549Z,3.05
2022-10-04T15:21:32.163Z,3.03
2022-10-04T15:24:24.194Z,5.55
2022-10-04T15:27:18.256Z,1.55
2022-10-04T15:30:12.618Z,4.10
2022-10-04T15:32:42.006Z,2.37
2022-10-04T15:35:17.205Z,5.47
2022-10-04T15:37:48.565Z,1.80
2022-10-04T15:41:10.052Z,2.28
2022-10-04T15:43:50.606Z,5.20
2022-10-04T15:46:31.539Z,2.35
2022-10-04T15:49:08.208Z,4.68
2022-10-04T15:51:44.004Z,3.17
2022-10-04T15:54:30.081Z,2.95
2022-10-04T15:56:56.747Z,2.33
2022-10-04T16:00:04.790Z,2.92
2022-10-04T16:02:53.391Z,4.35
2022-10-04T16:05:53.207Z,3.40
2022-10-04T16:08:25.350Z,3.90
2022-10-04T16:11:14.056Z,4.37
2022-10-04T16:13:54.646Z,5.55
2022-10-04T16:16:26.205Z,8.07
2022-10-04T16:19:10.044Z,4.12
2022-10-04T16:21:52.957Z,4.82
2022-10-04T16:24:22.516Z,2.95
2022-10-04T16:26:51.836Z,6.00
2022-10-04T16:29:29.384Z,5.68
2022-10-04T16:31:59.356Z,5.62
2022-10-04T16:34:45.361Z,7.03
2022-10-04T16:37:25.278Z,5.12
2022-10-04T16:40:05.919Z,3.87
2022-10-04T16:42:43.909Z,6.75
2022-10-04T16:45:10.454Z,6.10
2022-10-04T16:47:39.549Z,6.70
2022-10-04T16:50:09.883Z,4.20
2022-10-04T16:52:39.322Z,5.55
2022-10-04T16:55:41.421Z,5.03
2022-10-04T16:58:26.725Z,8.82
2022-10-04T17:01:21.756Z,9.77
2022-10-04T17:04:03.395Z,7.65
2022-10-04T17:06:42.134Z,5.57
2022-10-04T17:09:14.539Z,9.23
2022-10-04T17:11:45.821Z,5.07
2022-10-04T17:14:39.139Z,4.90
2022-10-04T17:17:15.466Z,6.72
2022-10-04T17:19:52.560Z,5.78
2022-10-04T17:22:44.709Z,6.95
2022-10-04T17:25:33.451Z,9.20
2022-10-04T17:28:13.054Z,6.47
2022-10-04T17:31:05.766Z,10.18
2022-10-04T17:33:35.622Z,6.62
2022-10-04T17:36:38.758Z,8.25
2022-10-04T17:39:39.050Z,8.77
2022-10-04T17:42:40.104Z,9.07
2022-10-04T17:45:28.017Z,7.12
2022-10-04T17:48:43.029Z,8.38
2022-10-04T17:51:32.758Z,8.50
2022-10-04T17:54:23.854Z,6.30
2022-10-04T17:57:11.443Z,8.27
2022-10-04T17:59:47.515Z,7.53
2022-10-04T18:02:24.800Z,12.30
2022-10-04T18:04:54.696Z,8.45
2022-10-04T18:07:31.467Z,10.75
2022-10-04T18:09:59.724Z,10.55
2022-10-04T18:12:32.844Z,12.25
2022-10-04T18:15:32.657Z,10.85
2022-10-04T18:18:13.074Z,10.55
2022-10-04T18:20:56.748Z,9.85
2022-10-04T18:23:28.239Z,10.85
2022-10-04T18:25:58.120Z,9.88
2022-10-04T18:28:24.784Z,11.25
2022-10-04T18:31:00.236Z,8.20
2022-10-04T18:33:31.584Z,8.98
2022-10-04T18:36:01.226Z,7.78
2022-10-04T18:38:28.515Z,9.13
2022-10-04T18:40:57.080Z,7.22
2022-10-04T18:43:29.778Z,6.30
2022-10-04T18:46:21.477Z,9.32
2022-10-04T18:48:50.829Z,8.77
2022-10-04T18:51:31.799Z,7.87
2022-10-04T18:54:09.898Z,10.02
2022-10-04T18:57:09.013Z,8.73
2022-10-04T18:59:59.818Z,9.93
2022-10-04T19:02:38.145Z,8.40
2022-10-04T19:05:28.973Z,9.15
2022-10-04T19:08:28.973Z,7.32
2022-10-04T19:11:26.916Z,7.40
2022-10-04T19:13:59.454Z,8.35
2022-10-04T19:16:36.092Z,9.70
2022-10-04T19:19:14.712Z,9.55
2022-10-04T19:21:55.418Z,9.80
2022-10-04T19:24:48.545Z,8.82
2022-10-04T19:27:36.845Z,8.48
2022-10-04T19:30:17.904Z,10.73
2022-10-04T19:33:18.915Z,8.25
2022-10-04T19:35:48.465Z,8.38
2022-10-04T19:38:38.489Z,8.15
2022-10-04T19:41:45.754Z,10.38
2022-10-04T19:44:32.098Z,8.38
2022-10-04T19:47:03.403Z,8.57
2022-10-04T19:49:36.152Z,9.82
2022-10-04T19:52:38.023Z,9.30
2022-10-04T19:55:43.615Z,10.30
2022-10-04T19:58:33.627Z,8.55
2022-10-04T20:01:00.364Z,7.85
2022-10-04T20:03:26.995Z,10.47
2022-10-04T20:05:54.393Z,8.98
2022-10-04T20:08:49.630Z,10.80
2022-10-04T20:11:48.377Z,8.20
2022-10-04T20:14:17.675Z,5.82
2022-10-04T20:16:47.176Z,10.73
2022-10-04T20:19:37.546Z,7.87
2022-10-04T20:22:13.006Z,6.15
2022-10-04T20:24:39.514Z,6.68
2022-10-04T20:27:20.865Z,9.00
2022-10-04T20:29:51.646Z,12.27
2022-10-04T20:32:26.797Z,8.63
2022-10-04T20:34:54.226Z,10.95
2022-10-04T20:37:21.638Z,8.88
2022-10-04T20:39:48.061Z,9.95
2022-10-04T20:42:31.772Z,7.18
2022-10-04T20:44:58.293Z,8.07
2022-10-04T20:47:28.952Z,9.23
2022-10-04T20:49:59.039Z,6.28
2022-10-04T20:52:27.905Z,6.90
2022-10-04T20:54:55.118Z,7.25
2022-10-04T20:57:23.857Z,9.90
2022-10-04T20:59:54.603Z,7.45
2022-10-04T21:02:21.875Z,8.10
2022-10-04T21:04:52.063Z,8.00
2022-10-04T21:07:20.538Z,11.43
2022-10-04T21:09:47.100Z,12.25
2022-10-04T21:12:35.402Z,13.32
2022-10-04T21:15:17.082Z,11.52
2022-10-04T21:17:44.703Z,8.85
2022-10-04T21:20:15.405Z,9.68
2022-10-04T21:22:42.066Z,10.23
2022-10-04T21:25:31.030Z,7.18
2022-10-04T21:28:33.739Z,7.65
2022-10-04T21:31:01.089Z,8.13
2022-10-04T21:33:27.723Z,7.55
2022-10-04T21:35:54.290Z,5.78
2022-10-04T21:38:20.895Z,6.60
2022-10-04T21:40:47.443Z,7.87
2022-10-04T21:43:14.007Z,7.18
2022-10-04T21:45:40.590Z,8.55
2022-10-04T21:48:07.150Z,7.45
2022-10-04T21:50:33.695Z,8.20
2022-10-04T21:53:01.739Z,5.60
2022-10-04T21:55:28.279Z,6.37
2022-10-04T21:57:54.808Z,8.30
2022-10-04T22:00:21.348Z,8.23
2022-10-04T22:02:47.959Z,6.45
2022-10-04T22:05:14.599Z,4.68
2022-10-04T22:07:41.122Z,6.00
2022-10-04T22:10:07.937Z,5.62
2022-10-04T22:12:34.465Z,9.07
2022-10-04T22:15:01.031Z,19.45
2022-10-04T22:17:27.562Z,16.45
2022-10-04T22:19:54.101Z,9.93
2022-10-04T22:22:20.627Z,11.32
2022-10-04T22:24:47.205Z,12.45
2022-10-04T22:27:18.344Z,8.75
2022-10-04T22:29:44.870Z,8.25
2022-10-04T22:32:31.586Z,7.65
2022-10-04T22:35:10.025Z,9.27
2022-10-04T22:40:03.127Z,8.13
2022-10-04T22:42:31.432Z,5.87
2022-10-04T22:45:01.012Z,9.80
2022-10-04T22:47:27.580Z,6.18
2022-10-04T22:49:54.259Z,7.72
2022-10-04T22:52:22.205Z,7.87
2022-10-04T22:54:49.711Z,6.07
2022-10-04T22:57:17.323Z,3.75
2022-10-04T22:59:48.464Z,4.50
2022-10-04T23:02:15.826Z,6.05
2022-10-04T23:04:49.517Z,5.05
2022-10-04T23:07:16.144Z,8.43
2022-10-04T23:09:42.651Z,7.15
2022-10-04T23:12:09.674Z,9.18
2022-10-04T23:14:39.585Z,7.25
2022-10-04T23:17:25.167Z,4.85
2022-10-04T23:19:58.799Z,10.07
2022-10-04T23:22:29.173Z,6.60
2022-10-04T23:24:56.026Z,9.50
2022-10-04T23:27:22.653Z,7.57
2022-10-04T23:29:50.971Z,7.12
2022-10-04T23:32:17.773Z,8.50
2022-10-04T23:34:45.570Z,7.65
2022-10-04T23:39:48.210Z,7.70
2022-10-04T23:42:23.277Z,7.43
2022-10-04T23:44:50.067Z,8.40
2022-10-04T23:47:18.422Z,9.23
2022-10-04T23:49:49.480Z,9.07
2022-10-04T23:52:21.829Z,8.38
2022-10-04T23:54:49.107Z,7.32
2022-10-04T23:57:23.850Z,9.15
2022-10-04T23:59:50.522Z,6.93
